Time;durP1;ratioP1;P1;durP2;ratioP2;P2;SDS_P1;SDS_P2;PMS_P1;PMS_P2;Temp;Humidity;BMP_temperature;BMP_pressure;BME280_temperature;BME280_humidity;BME280_pressure;Samples;Min_cycle;Max_cycle;Signal;HPM_P1;HPM_P2
2023/02/22 00:01:06;;;;;;;25.02;19.42;;;;;;;13.57;57.73;98662.81;5094627;28;20035;-47
2023/02/22 00:03:35;;;;;;;31.65;25.25;;;;;;;13.63;58.13;98653.22;5114960;28;20024;-47
2023/02/22 00:06:05;;;;;;;24.75;18.33;;;;;;;13.69;57.45;98653.13;5096747;28;20032;-47
2023/02/22 00:08:36;;;;;;;22.20;17.73;;;;;;;13.46;57.58;98651.19;5096716;28;20030;-47
2023/02/22 00:11:08;;;;;;;22.70;17.88;;;;;;;13.34;58.62;98650.28;5114983;28;20031;-47
2023/02/22 00:13:37;;;;;;;23.52;18.60;;;;;;;13.29;59.08;98644.84;5114889;28;20031;-48
2023/02/22 00:16:04;;;;;;;29.52;19.15;;;;;;;13.29;59.83;98650.94;5096557;28;20033;-47
2023/02/22 00:18:31;;;;;;;27.92;18.45;;;;;;;13.37;59.55;98655.91;5096517;28;20096;-47
2023/02/22 00:20:59;;;;;;;25.95;18.70;;;;;;;13.26;58.88;98648.72;5079514;28;20046;-47
2023/02/22 00:23:28;;;;;;;60.15;44.05;;;;;;;13.06;59.94;98648.91;5096421;28;20030;-47
2023/02/22 00:25:57;;;;;;;27.70;20.42;;;;;;;13.09;59.81;98652.94;5114551;28;20410;-47
2023/02/22 00:28:24;;;;;;;25.77;19.63;;;;;;;13.01;59.93;98650.59;5096310;28;20532;-47
2023/02/22 00:30:53;;;;;;;27.80;17.58;;;;;;;13.01;60.62;98656.66;5096133;28;20027;-47
2023/02/22 00:33:21;;;;;;;21.13;18.33;;;;;;;12.98;60.46;98651.84;5114454;28;20102;-47
2023/02/22 00:35:48;;;;;;;24.77;18.92;;;;;;;13.01;60.20;98658.50;5096213;28;20027;-47
2023/02/22 00:38:17;;;;;;;28.58;19.20;;;;;;;12.89;60.65;98651.28;5114671;28;20026;-47
2023/02/22 00:40:44;;;;;;;32.53;19.80;;;;;;;12.94;60.95;98648.81;5114274;28;20103;-47
2023/02/22 00:43:11;;;;;;;28.00;18.70;;;;;;;13.18;60.29;98654.28;5114548;28;20362;-47
2023/02/22 00:45:39;;;;;;;27.60;19.15;;;;;;;13.06;60.00;98650.72;5113646;28;20023;-47
2023/02/22 00:48:07;;;;;;;23.48;18.35;;;;;;;13.01;60.85;98647.94;5114309;28;20136;-47
2023/02/22 00:50:35;;;;;;;24.80;19.02;;;;;;;12.99;60.80;98641.06;5114147;28;20026;-47
2023/02/22 00:53:04;;;;;;;25.58;19.63;;;;;;;13.09;60.75;98652.94;5114052;28;20047;-47
2023/02/22 00:55:33;;;;;;;35.22;20.23;;;;;;;13.08;60.89;98638.13;5114032;28;20031;-47
2023/02/22 00:58:01;;;;;;;30.50;19.25;;;;;;;13.19;60.73;98640.06;5081756;28;20048;-47
2023/02/22 01:00:38;;;;;;;26.85;19.13;;;;;;;13.21;62.61;98640.66;5093382;28;20074;-47
2023/02/22 01:03:20;;;;;;;29.88;19.55;;;;;;;13.27;61.07;98638.97;5093813;28;20036;-48
2023/02/22 01:05:54;;;;;;;26.17;18.38;;;;;;;13.21;61.14;98635.38;5093366;28;20047;-47
2023/02/22 01:08:37;;;;;;;39.08;29.70;;;;;;;13.09;61.04;98637.94;5093491;28;20024;-47
2023/02/22 01:11:10;;;;;;;44.78;34.38;;;;;;;13.03;61.29;98638.00;5093315;28;20028;-47
2023/02/22 01:13:53;;;;;;;32.92;24.67;;;;;;;13.05;61.81;98643.84;5093392;28;20512;-48
2023/02/22 01:16:40;;;;;;;35.05;21.17;;;;;;;13.16;61.70;98637.88;5093319;28;20028;-47
2023/02/22 01:19:15;;;;;;;24.50;19.25;;;;;;;13.24;60.68;98634.13;5075059;28;20447;-48
2023/02/22 01:21:54;;;;;;;29.60;20.65;;;;;;;13.12;60.68;98634.03;5093133;28;20021;-48
2023/02/22 01:24:40;;;;;;;21.50;19.10;;;;;;;13.12;61.21;98645.41;5093185;28;20024;-47
2023/02/22 01:27:30;;;;;;;56.08;46.60;;;;;;;13.03;61.87;98651.97;5074920;28;20028;-47
2023/02/22 01:30:15;;;;;;;27.75;20.17;;;;;;;12.88;60.65;98647.06;5074873;28;20063;-48
2023/02/22 01:33:02;;;;;;;25.65;18.20;;;;;;;12.82;60.30;98647.91;5074753;28;20077;-47
2023/02/22 01:35:39;;;;;;;25.88;21.55;;;;;;;12.73;59.64;98643.94;5074709;28;20570;-47
2023/02/22 01:38:23;;;;;;;28.88;21.88;;;;;;;12.37;59.58;98643.59;5092135;28;20024;-47
2023/02/22 01:41:05;;;;;;;28.52;21.20;;;;;;;12.23;59.82;98642.03;5074514;28;20028;-47
2023/02/22 01:43:41;;;;;;;28.90;20.75;;;;;;;12.11;59.73;98643.75;5092774;28;20027;-47
2023/02/22 01:46:47;;;;;;;35.70;21.80;;;;;;;11.99;59.70;98636.53;5074491;28;20095;-47
2023/02/22 01:49:36;;;;;;;30.23;20.23;;;;;;;11.81;59.43;98636.38;5093001;28;20392;-47
2023/02/22 01:52:11;;;;;;;29.67;21.23;;;;;;;11.65;59.63;98629.78;5071740;28;20032;-46
2023/02/22 01:55:00;;;;;;;25.33;20.47;;;;;;;11.52;60.93;98640.34;5074490;28;20024;-46
2023/02/22 01:57:38;;;;;;;30.33;22.55;;;;;;;11.45;60.47;98640.38;5075067;28;20380;-48
2023/02/22 02:00:26;;;;;;;30.63;21.17;;;;;;;11.41;60.86;98636.53;5111195;28;20023;-47
2023/02/22 02:03:13;;;;;;;28.45;21.02;;;;;;;11.33;61.21;98640.19;5112611;28;20050;-48
2023/02/22 02:05:42;;;;;;;31.00;22.58;;;;;;;11.25;62.17;98637.78;5112736;28;20063;-46
2023/02/22 02:08:35;;;;;;;32.88;22.88;;;;;;;11.17;63.33;98628.31;5094462;28;20031;-47
2023/02/22 02:11:04;;;;;;;35.60;25.08;;;;;;;11.28;62.48;98634.72;5112992;28;20397;-47
2023/02/22 02:13:32;;;;;;;32.97;21.77;;;;;;;11.20;62.41;98629.69;5112676;28;20501;-47
2023/02/22 02:15:59;;;;;;;27.02;22.20;;;;;;;11.11;63.58;98623.06;5112653;28;20094;-46
2023/02/22 02:18:28;;;;;;;26.13;21.60;;;;;;;11.06;63.20;98626.28;5112506;28;20028;-47
2023/02/22 02:21:17;;;;;;;26.30;22.42;;;;;;;10.95;63.24;98625.09;5112467;28;20027;-47
2023/02/22 02:24:18;;;;;;;27.25;23.02;;;;;;;10.77;63.66;98625.72;5112538;28;20099;-47
2023/02/22 02:27:02;;;;;;;32.28;22.38;;;;;;;10.62;64.47;98619.88;5112451;28;20104;-48
2023/02/22 02:29:48;;;;;;;29.45;20.95;;;;;;;10.67;65.30;98620.06;5094209;28;20034;-47
2023/02/22 02:32:37;;;;;;;34.92;22.00;;;;;;;10.53;64.40;98608.78;5094270;28;20493;-47
2023/02/22 02:35:46;;;;;;;37.65;20.85;;;;;;;10.57;65.31;98611.81;5112458;28;20058;-47
2023/02/22 02:39:11;;;;;;;29.83;21.35;;;;;;;10.86;64.60;98613.19;5112389;28;20027;-48
2023/02/22 02:41:52;;;;;;;29.88;22.27;;;;;;;10.89;64.48;98606.75;5093864;28;20393;-48
2023/02/22 02:44:40;;;;;;;30.50;21.67;;;;;;;10.75;64.48;98611.19;5112210;28;20397;-47
2023/02/22 02:47:35;;;;;;;30.63;20.48;;;;;;;10.70;64.39;98613.59;5093872;28;20079;-47
2023/02/22 02:50:31;;;;;;;30.02;19.50;;;;;;;10.82;65.83;98608.56;5093850;28;20032;-47
2023/02/22 02:53:32;;;;;;;28.08;18.02;;;;;;;11.16;65.80;98604.84;5093966;28;20155;-47
2023/02/22 02:56:22;;;;;;;29.60;20.33;;;;;;;11.47;64.53;98600.72;5093855;28;20032;-46
2023/02/22 02:59:36;;;;;;;27.25;19.98;;;;;;;11.29;64.47;98598.75;5112139;28;20047;-47
2023/02/22 03:06:14;;;;;;;27.80;21.17;;;;;;;11.20;64.13;98598.97;5112163;28;20042;-47
2023/02/22 03:09:05;;;;;;;27.05;20.15;;;;;;;11.27;64.79;98606.03;5115235;28;20028;-46
2023/02/22 03:12:44;;;;;;;29.40;22.20;;;;;;;11.10;63.19;98597.81;5116107;28;20105;-48
2023/02/22 03:16:01;;;;;;;28.65;19.50;;;;;;;11.07;66.02;98598.22;5115901;28;20037;-47
2023/02/22 03:19:05;;;;;;;30.48;21.90;;;;;;;11.31;65.18;98599.38;5115870;28;20031;-47
2023/02/22 03:22:31;;;;;;;30.38;21.73;;;;;;;11.35;64.28;98604.00;5115874;28;20532;-46
2023/02/22 03:25:36;;;;;;;38.05;22.55;;;;;;;11.14;63.68;98594.56;5115787;28;20028;-46
2023/02/22 03:28:33;;;;;;;28.60;19.08;;;;;;;11.02;64.81;98598.81;5097516;28;20032;-46
2023/02/22 03:31:36;;;;;;;25.88;20.20;;;;;;;11.13;63.84;98598.22;5115686;28;20023;-48
2023/02/22 03:34:40;;;;;;;26.08;18.52;;;;;;;11.22;65.08;98596.16;5115620;28;20027;-47
2023/02/22 03:37:39;;;;;;;27.40;19.35;;;;;;;11.52;63.86;98590.41;5097300;28;20439;-47
2023/02/22 03:40:32;;;;;;;29.10;18.15;;;;;;;11.53;64.27;98598.09;5097522;28;20088;-47
2023/02/22 03:43:47;;;;;;;30.80;19.08;;;;;;;11.66;63.90;98596.41;5115576;28;20024;-47
2023/02/22 03:46:20;;;;;;;24.90;18.95;;;;;;;11.65;63.55;98592.97;5096930;28;20061;-46
2023/02/22 03:49:57;;;;;;;22.73;17.55;;;;;;;11.53;63.86;98592.00;5101506;28;20036;-47
2023/02/22 03:52:24;;;;;;;30.90;17.73;;;;;;;11.56;63.76;98591.59;5115282;28;20035;-47
2023/02/22 03:55:11;;;;;;;24.85;19.60;;;;;;;11.60;62.74;98593.59;5096992;28;20073;-47
2023/02/22 03:57:59;;;;;;;33.53;20.38;;;;;;;11.42;61.54;98592.66;5093220;28;20059;-47
2023/02/22 04:00:56;;;;;;;31.48;21.35;;;;;;;11.20;61.81;98593.72;5094283;28;20040;-46
2023/02/22 04:03:24;;;;;;;31.00;22.60;;;;;;;10.93;61.65;98600.88;5087264;28;20024;-47
2023/02/22 04:05:52;;;;;;;34.55;21.20;;;;;;;10.73;62.48;98600.91;5094690;28;20031;-47
2023/02/22 04:08:22;;;;;;;26.50;21.05;;;;;;;10.76;62.67;98604.91;5094715;28;20024;-46
2023/02/22 04:10:49;;;;;;;26.23;20.88;;;;;;;10.77;62.59;98598.69;5094644;28;20024;-47
2023/02/22 04:13:16;;;;;;;29.42;20.60;;;;;;;10.81;62.80;98607.75;5085015;28;20051;-46
2023/02/22 04:15:43;;;;;;;29.65;19.75;;;;;;;10.89;62.95;98599.66;5094746;28;20028;-47
2023/02/22 04:18:10;;;;;;;39.60;20.67;;;;;;;10.78;62.59;98603.72;5094327;28;20023;-46
2023/02/22 04:20:37;;;;;;;27.25;21.30;;;;;;;10.71;62.87;98607.38;5093364;28;20111;-47
2023/02/22 04:23:05;;;;;;;26.00;21.50;;;;;;;10.56;62.93;98603.13;5091388;28;20028;-46
2023/02/22 04:25:32;;;;;;;29.17;22.42;;;;;;;10.38;62.45;98605.53;5086835;28;20020;-47
2023/02/22 04:27:59;;;;;;;34.75;22.35;;;;;;;10.27;62.85;98606.09;5092984;28;20068;-46
2023/02/22 04:30:28;;;;;;;28.38;20.85;;;;;;;10.30;63.59;98603.09;5085895;28;20024;-46
2023/02/22 04:33:01;;;;;;;;;;;;;;;10.28;63.14;98599.84;5094621;28;20046;-47
2023/02/22 04:35:29;;;;;;;30.48;20.15;;;;;;;10.20;63.14;98603.44;5094161;28;19977;-46
2023/02/22 04:37:57;;;;;;;26.23;21.90;;;;;;;10.20;63.20;98596.41;5094107;28;20066;-47
2023/02/22 04:40:24;;;;;;;33.70;22.75;;;;;;;10.24;63.46;98601.25;5093910;28;20107;-47
2023/02/22 04:42:50;;;;;;;26.85;21.90;;;;;;;10.24;63.26;98607.31;5094007;28;20012;-47
2023/02/22 04:45:17;;;;;;;30.60;20.45;;;;;;;10.14;63.14;98605.09;5084430;28;20032;-46
2023/02/22 04:47:44;;;;;;;29.75;23.30;;;;;;;10.11;63.64;98602.84;5093894;28;20024;-47
2023/02/22 04:50:13;;;;;;;31.17;23.30;;;;;;;10.08;63.70;98603.25;5093703;28;20119;-47
2023/02/22 04:52:40;;;;;;;30.73;21.92;;;;;;;9.98;64.20;98606.25;5093804;28;20028;-47
2023/02/22 04:55:07;;;;;;;33.85;23.45;;;;;;;9.87;64.24;98604.19;5091202;28;20489;-46
2023/02/22 04:57:36;;;;;;;32.35;20.23;;;;;;;9.84;65.10;98604.59;5092315;28;20105;-48
2023/02/22 05:03:11;;;;;;;37.00;20.75;;;;;;;9.88;64.51;98607.63;5093344;28;20074;-48
2023/02/22 05:05:38;;;;;;;33.70;21.90;;;;;;;9.78;64.45;98610.63;5093766;28;20382;-47
2023/02/22 05:08:10;;;;;;;31.75;20.40;;;;;;;9.80;64.74;98606.00;5074067;28;20024;-46
2023/02/22 05:10:37;;;;;;;36.30;21.67;;;;;;;9.85;64.76;98600.16;5093306;28;20031;-47
2023/02/22 05:13:11;;;;;;;40.60;23.15;;;;;;;9.91;64.87;98613.28;5073974;28;20158;-47
2023/02/22 05:15:45;;;;;;;37.55;21.65;;;;;;;9.90;64.34;98613.47;5093340;28;20019;-47
2023/02/22 05:18:22;;;;;;;34.92;21.80;;;;;;;9.87;64.34;98619.13;5074657;28;20024;-48
2023/02/22 05:20:52;;;;;;;38.03;20.50;;;;;;;9.94;64.73;98617.31;5093232;28;20039;-47
2023/02/22 05:23:26;;;;;;;36.33;21.63;;;;;;;9.90;64.72;98614.31;5093171;28;20024;-48
2023/02/22 05:26:00;;;;;;;45.40;21.30;;;;;;;9.84;65.01;98612.47;5071817;28;20025;-46
2023/02/22 05:28:27;;;;;;;29.80;20.95;;;;;;;9.92;65.00;98614.91;5071632;28;20115;-46
2023/02/22 05:30:53;;;;;;;36.08;19.85;;;;;;;9.95;64.84;98619.75;5072002;28;20047;-46
2023/02/22 05:33:29;;;;;;;31.25;20.25;;;;;;;10.10;64.56;98609.09;5092952;28;20028;-47
2023/02/22 05:35:55;;;;;;;;;;;;;;;10.16;64.17;98610.09;5072573;28;20528;-47
2023/02/22 05:38:22;;;;;;;33.28;20.42;;;;;;;10.13;64.07;98613.13;5092933;28;19919;-46
2023/02/22 05:40:49;;;;;;;35.95;22.45;;;;;;;10.06;63.97;98612.31;5092843;28;20035;-47
2023/02/22 05:43:16;;;;;;;32.38;22.35;;;;;;;9.96;63.69;98613.50;5074643;28;20028;-47
2023/02/22 05:45:43;;;;;;;27.95;21.10;;;;;;;9.92;63.85;98614.09;5074510;28;20028;-47
2023/02/22 05:48:11;;;;;;;38.33;21.67;;;;;;;9.98;64.41;98614.13;5093006;28;20027;-47
2023/02/22 05:50:39;;;;;;;37.53;21.63;;;;;;;10.16;64.00;98618.81;5071150;28;20498;-46
2023/02/22 05:53:06;;;;;;;37.65;22.55;;;;;;;10.20;63.49;98614.78;5091254;28;20500;-47
2023/02/22 05:55:33;;;;;;;32.97;20.95;;;;;;;10.27;63.63;98609.53;5092873;28;20791;-47
2023/02/22 05:58:00;;;;;;;31.85;21.98;;;;;;;10.26;63.21;98613.19;5102006;28;20053;-46
2023/02/22 06:00:30;;;;;;;38.95;21.10;;;;;;;10.22;63.19;98611.13;5094525;28;20092;-46
2023/02/22 06:03:05;;;;;;;47.03;22.17;;;;;;;10.18;63.00;98614.16;5094538;28;20031;-47
2023/02/22 06:05:32;;;;;;;46.58;22.98;;;;;;;10.08;63.33;98613.75;5112741;28;20020;-46
2023/02/22 06:08:02;;;;;;;48.80;23.10;;;;;;;10.10;63.86;98619.59;5112606;28;20024;-47
2023/02/22 06:10:30;;;;;;;35.13;21.63;;;;;;;10.19;63.30;98613.13;5112654;28;20084;-47
2023/02/22 06:13:10;;;;;;;44.90;24.02;;;;;;;10.14;63.53;98607.69;5112685;28;20020;-46
2023/02/22 06:15:38;;;;;;;41.58;21.40;;;;;;;10.16;63.20;98613.56;5094218;28;20027;-47
2023/02/22 06:18:04;;;;;;;33.00;20.83;;;;;;;10.09;63.28;98614.53;5094473;28;20095;-47
2023/02/22 06:20:34;;;;;;;28.13;20.63;;;;;;;10.17;63.43;98612.53;5112470;28;20020;-47
2023/02/22 06:23:01;;;;;;;40.13;22.67;;;;;;;10.25;62.80;98613.38;5094219;28;20027;-47
2023/02/22 06:25:37;;;;;;;33.45;23.17;;;;;;;10.37;62.37;98617.84;5112508;28;20076;-47
2023/02/22 06:28:04;;;;;;;46.05;22.33;;;;;;;10.37;62.26;98623.09;5112525;28;20059;-46
2023/02/22 06:30:31;;;;;;;40.65;21.65;;;;;;;10.42;62.54;98619.06;5094095;28;20126;-46
2023/02/22 06:33:10;;;;;;;31.80;21.00;;;;;;;10.40;62.10;98621.88;5112382;28;20508;-48
2023/02/22 06:35:46;;;;;;;49.30;22.63;;;;;;;10.43;62.16;98624.09;5094050;28;20034;-47
2023/02/22 06:38:29;;;;;;;52.85;21.27;;;;;;;10.39;62.61;98631.56;5112367;28;20511;-47
2023/02/22 06:40:56;;;;;;;43.83;21.63;;;;;;;10.45;62.75;98629.16;5112204;28;20114;-46
2023/02/22 06:43:23;;;;;;;44.42;22.85;;;;;;;10.53;62.86;98631.59;5111661;28;20020;-47
2023/02/22 06:45:51;;;;;;;36.95;22.58;;;;;;;10.58;62.46;98632.59;5112132;28;20024;-47
2023/02/22 06:48:19;;;;;;;41.20;34.42;;;;;;;10.49;63.16;98638.25;5112219;28;20052;-47
2023/02/22 06:50:55;;;;;;;49.40;23.02;;;;;;;10.42;63.23;98635.59;5112174;28;20019;-47
2023/02/22 06:53:22;;;;;;;54.70;23.52;;;;;;;10.32;63.45;98635.19;5112111;28;20024;-47
2023/02/22 06:55:53;;;;;;;43.60;28.25;;;;;;;10.36;64.11;98639.03;5093810;28;20050;-47
2023/02/22 06:58:21;;;;;;;48.47;22.15;;;;;;;10.36;64.13;98637.22;5111867;28;20044;-47
2023/02/22 07:00:48;;;;;;;40.72;20.98;;;;;;;10.41;64.60;98641.06;5111973;28;20070;-47
2023/02/22 07:03:15;;;;;;;47.80;22.65;;;;;;;10.36;64.17;98644.25;5093707;28;20065;-47
2023/02/22 07:05:43;;;;;;;56.15;24.17;;;;;;;10.48;64.31;98640.03;5111976;28;20031;-47
2023/02/22 07:08:10;;;;;;;43.88;21.55;;;;;;;10.72;63.55;98646.50;5112255;28;20404;-47
2023/02/22 07:10:39;;;;;;;38.55;21.58;;;;;;;10.99;63.33;98646.53;5093769;28;20023;-47
2023/02/22 07:13:07;;;;;;;64.75;24.98;;;;;;;11.19;61.80;98657.81;5111941;28;20031;-47
2023/02/22 07:15:36;;;;;;;78.60;34.30;;;;;;;11.19;61.60;98652.53;5111870;28;20012;-47
2023/02/22 07:18:15;;;;;;;61.25;28.88;;;;;;;11.32;61.58;98662.22;5093658;28;20036;-47
2023/02/22 07:20:53;;;;;;;39.58;26.05;;;;;;;11.52;61.29;98662.16;5112014;28;20027;-46
2023/02/22 07:23:31;;;;;;;74.70;52.58;;;;;;;11.55;60.35;98671.44;5111979;28;20032;-47
2023/02/22 07:26:04;;;;;;;60.35;47.60;;;;;;;11.55;60.49;98674.06;5111910;28;20055;-47
2023/02/22 07:28:31;;;;;;;75.57;62.58;;;;;;;11.65;60.68;98671.84;5111949;28;20054;-47
2023/02/22 07:31:00;;;;;;;48.67;34.55;;;;;;;11.81;60.54;98667.91;5111876;28;20024;-47
2023/02/22 07:33:28;;;;;;;57.75;33.97;;;;;;;11.94;59.36;98675.00;5111773;28;20020;-46
2023/02/22 07:35:54;;;;;;;35.83;23.50;;;;;;;11.87;59.24;98672.38;5111782;28;20121;-47
2023/02/22 07:38:22;;;;;;;36.88;24.15;;;;;;;11.86;59.69;98669.94;5111816;28;20024;-47
2023/02/22 07:40:49;;;;;;;65.72;22.75;;;;;;;11.89;59.68;98674.78;5093370;28;20031;-47
2023/02/22 07:43:18;;;;;;;60.40;26.30;;;;;;;11.96;59.13;98673.75;5093432;28;20050;-47
2023/02/22 07:45:58;;;;;;;68.32;39.15;;;;;;;11.83;59.34;98678.22;5111635;28;20019;-48
2023/02/22 07:48:28;;;;;;;49.63;28.27;;;;;;;11.87;59.52;98674.16;5111670;28;20374;-47
2023/02/22 07:50:56;;;;;;;56.65;37.13;;;;;;;11.91;59.26;98680.66;5111654;28;20020;-47
2023/02/22 07:53:32;;;;;;;60.65;36.22;;;;;;;11.90;58.85;98673.78;5112449;28;20036;-47
2023/02/22 07:56:01;;;;;;;47.08;38.92;;;;;;;11.78;59.26;98671.78;5097035;28;20449;-47
2023/02/22 07:58:30;;;;;;;56.63;43.38;;;;;;;11.90;59.54;98674.59;5115015;28;20055;-47
2023/02/22 08:00:57;;;;;;;74.97;50.38;;;;;;;12.14;59.42;98672.28;5115187;28;20023;-47
2023/02/22 08:03:26;;;;;;;46.60;24.13;;;;;;;12.41;59.01;98675.53;5115184;28;20027;-47
2023/02/22 08:05:55;;;;;;;54.17;29.15;;;;;;;12.57;58.31;98669.75;5096901;28;20053;-47
2023/02/22 08:08:22;;;;;;;92.60;63.67;;;;;;;12.50;59.16;98679.53;5115083;28;20067;-47
2023/02/22 08:10:51;;;;;;;61.13;33.13;;;;;;;12.45;59.47;98679.34;5115000;28;20082;-47
2023/02/22 08:13:20;;;;;;;76.82;33.05;;;;;;;12.62;59.41;98677.03;5115007;28;20016;-47
2023/02/22 08:15:50;;;;;;;57.28;23.27;;;;;;;12.74;58.93;98682.41;5114955;28;20024;-47
2023/02/22 08:18:19;;;;;;;331.05;301.08;;;;;;;12.86;59.04;98670.16;5114893;28;20018;-47
2023/02/22 08:20:47;;;;;;;138.63;123.50;;;;;;;13.06;58.39;98666.53;5114670;28;20026;-47
2023/02/22 08:23:16;;;;;;;113.47;71.38;;;;;;;13.27;57.99;98671.41;5114797;28;20019;-47
2023/02/22 08:25:43;;;;;;;70.65;31.17;;;;;;;13.34;57.21;98663.44;5096665;28;20035;-47
2023/02/22 08:28:14;;;;;;;77.80;34.88;;;;;;;13.44;57.32;98678.78;5079567;28;20082;-47
2023/02/22 08:30:42;;;;;;;69.18;41.00;;;;;;;13.66;57.29;98669.41;5114633;28;20024;-47
2023/02/22 08:33:13;;;;;;;74.50;32.20;;;;;;;13.92;56.82;98680.66;5114527;28;20544;-47
2023/02/22 08:35:40;;;;;;;58.28;29.15;;;;;;;14.03;56.07;98676.47;5115021;28;20039;-47
2023/02/22 08:38:40;;;;;;;57.13;40.22;;;;;;;14.03;56.14;98673.84;5114518;28;20020;-47
2023/02/22 08:41:18;;;;;;;76.78;51.67;;;;;;;14.08;56.02;98679.25;5114385;28;20023;-48
2023/02/22 08:43:49;;;;;;;49.35;40.13;;;;;;;14.02;55.91;98674.88;5114404;28;20016;-47
2023/02/22 08:46:16;;;;;;;44.15;31.10;;;;;;;13.96;55.67;98673.91;5096053;28;20081;-47
2023/02/22 08:48:51;;;;;;;34.65;22.65;;;;;;;13.86;55.72;98671.00;5114360;28;20098;-47
2023/02/22 08:51:20;;;;;;;54.63;35.33;;;;;;;13.75;56.14;98668.09;5114297;28;20049;-47
2023/02/22 08:53:47;;;;;;;35.50;31.15;;;;;;;13.75;56.65;98670.72;5114277;28;20049;-47
2023/02/22 08:56:14;;;;;;;48.30;41.25;;;;;;;13.78;57.15;98669.47;5114166;28;20452;-47
2023/02/22 08:58:40;;;;;;;55.10;41.15;;;;;;;13.85;57.25;98674.69;5079986;28;20051;-47
2023/02/22 09:01:08;;;;;;;82.57;50.47;;;;;;;13.93;57.62;98669.09;5093549;28;20032;-47
2023/02/22 09:03:35;;;;;;;52.08;32.03;;;;;;;14.25;57.10;98671.53;5093612;28;20019;-47
2023/02/22 09:06:03;;;;;;;39.42;28.80;;;;;;;14.51;56.83;98667.69;5092956;28;20031;-47
2023/02/22 09:08:30;;;;;;;43.35;31.80;;;;;;;14.82;56.75;98668.47;5093442;28;20477;-47
2023/02/22 09:10:57;;;;;;;59.45;36.03;;;;;;;15.09;56.69;98666.16;5093720;28;20452;-47
2023/02/22 09:13:24;;;;;;;36.03;26.90;;;;;;;15.33;55.74;98672.25;5075201;28;20174;-47
2023/02/22 09:15:49;;;;;;;50.00;31.38;;;;;;;15.54;55.95;98681.44;5093344;28;20032;-47
2023/02/22 09:18:20;;;;;;;38.08;26.00;;;;;;;15.89;55.13;98670.78;5093674;28;20031;-47
2023/02/22 09:20:57;;;;;;;36.08;28.63;;;;;;;16.17;54.16;98669.19;5093071;28;20028;-48
2023/02/22 09:23:25;;;;;;;37.90;23.63;;;;;;;16.29;53.47;98661.22;5093339;28;20032;-47
2023/02/22 09:25:51;;;;;;;39.10;22.83;;;;;;;16.37;52.97;98668.75;5075163;28;20087;-47
2023/02/22 09:28:27;;;;;;;32.65;17.85;;;;;;;16.31;53.16;98667.06;5074950;28;20057;-47
2023/02/22 09:31:09;;;;;;;20.23;12.68;;;;;;;16.33;52.24;98657.84;5075165;28;20118;-48
2023/02/22 09:33:35;;;;;;;30.63;15.93;;;;;;;16.57;52.38;98663.81;5093087;28;20051;-47
2023/02/22 09:36:14;;;;;;;21.73;14.55;;;;;;;16.81;50.48;98657.56;5074723;28;20108;-48
2023/02/22 09:38:42;;;;;;;103.90;94.53;;;;;;;16.78;51.51;98654.34;5074742;28;20439;-47
2023/02/22 09:41:36;;;;;;;29.80;20.65;;;;;;;17.06;50.40;98660.59;5092706;28;20052;-47
2023/02/22 09:44:37;;;;;;;24.92;14.25;;;;;;;17.22;50.43;98655.53;5092818;28;20032;-47
2023/02/22 09:47:12;;;;;;;17.88;14.75;;;;;;;17.27;49.11;98661.72;5092808;28;20551;-47
2023/02/22 09:49:49;;;;;;;21.17;16.45;;;;;;;17.22;49.68;98658.19;5092766;28;20040;-47
2023/02/22 09:52:28;;;;;;;17.88;11.65;;;;;;;17.37;49.34;98656.53;5074542;28;20035;-48
2023/02/22 09:55:49;;;;;;;172.57;158.40;;;;;;;17.71;49.03;98656.44;5092769;28;20020;-48
2023/02/22 09:58:32;;;;;;;24.10;12.20;;;;;;;17.81;47.52;98660.25;5010309;28;20555;-47
2023/02/22 10:01:21;;;;;;;16.98;10.63;;;;;;;17.78;47.59;98661.56;5010295;28;20030;-47
2023/02/22 10:04:40;;;;;;;15.32;10.07;;;;;;;17.98;47.95;98668.97;5010281;28;20538;-47
2023/02/22 10:07:19;;;;;;;15.10;9.95;;;;;;;18.04;47.39;98664.53;5010331;28;20463;-47
2023/02/22 10:09:49;;;;;;;18.08;9.88;;;;;;;17.91;47.74;98665.72;4993881;28;20491;-48
2023/02/22 10:12:43;;;;;;;20.65;12.02;;;;;;;17.73;48.35;98666.81;4993656;28;20041;-48
2023/02/22 10:15:39;;;;;;;18.17;9.65;;;;;;;17.71;47.64;98672.38;5010277;28;20030;-47
2023/02/22 10:18:24;;;;;;;23.73;10.40;;;;;;;17.59;47.98;98671.69;5009372;28;20029;-48
2023/02/22 10:20:58;;;;;;;74.30;56.05;;;;;;;17.50;47.92;98660.69;5010039;28;20585;-47
2023/02/22 10:24:01;;;;;;;33.35;18.75;;;;;;;17.32;48.19;98666.28;5010262;28;20061;-48
2023/02/22 10:26:36;;;;;;;65.10;47.15;;;;;;;17.23;48.83;98670.41;4973321;28;20478;-47
2023/02/22 10:29:38;;;;;;;37.17;26.52;;;;;;;17.43;49.16;98669.88;5010027;28;20413;-47
2023/02/22 10:32:42;;;;;;;49.03;16.63;;;;;;;17.55;49.75;98670.56;5056107;28;20127;-47
2023/02/22 10:35:28;;;;;;;32.60;12.55;;;;;;;17.91;51.27;98652.47;5073845;28;20579;-48
2023/02/22 10:38:19;;;;;;;32.10;14.40;;;;;;;18.19;49.76;98658.56;5091925;28;20035;-47
2023/02/22 10:41:12;;;;;;;31.70;12.48;;;;;;;18.47;49.33;98658.31;5092139;28;20053;-47
2023/02/22 10:43:42;;;;;;;26.13;15.07;;;;;;;18.87;47.20;98654.41;5091694;28;20032;-45
2023/02/22 10:46:20;;;;;;;28.25;16.50;;;;;;;18.92;46.52;98654.44;5072964;28;20184;-45
2023/02/22 10:49:07;;;;;;;18.75;10.65;;;;;;;18.92;45.54;98657.09;5070344;28;20039;-45
2023/02/22 10:51:34;;;;;;;18.25;11.30;;;;;;;18.53;45.68;98657.31;5091723;28;20025;-45
2023/02/22 10:54:27;;;;;;;18.40;9.90;;;;;;;18.08;46.25;98652.34;5071676;28;20413;-45
2023/02/22 10:56:56;;;;;;;29.23;10.25;;;;;;;17.64;47.56;98655.81;5091562;28;20046;-45
2023/02/22 10:59:35;;;;;;;19.33;9.48;;;;;;;17.54;48.33;98648.53;5083483;28;20424;-44
2023/02/22 11:02:18;;;;;;;23.67;11.15;;;;;;;17.53;48.63;98648.78;5092026;28;20401;-45
2023/02/22 11:05:08;;;;;;;12.80;8.43;;;;;;;17.31;48.78;98651.44;5111982;28;20028;-44
2023/02/22 11:07:36;;;;;;;10.65;7.13;;;;;;;17.15;48.70;98642.47;5111860;28;20081;-45
2023/02/22 11:10:10;;;;;;;17.63;8.90;;;;;;;16.94;48.98;98638.69;5112686;28;20024;-44
2023/02/22 11:12:41;;;;;;;16.02;8.75;;;;;;;16.81;49.44;98642.50;5112031;28;20028;-45
2023/02/22 11:15:28;;;;;;;15.57;9.48;;;;;;;16.83;49.80;98643.03;5111933;28;20024;-45
2023/02/22 11:18:39;;;;;;;15.85;9.82;;;;;;;16.66;49.86;98637.72;5111921;28;20093;-45
2023/02/22 11:21:23;;;;;;;23.33;10.55;;;;;;;16.67;50.35;98630.56;5111881;28;20024;-45
2023/02/22 11:24:25;;;;;;;22.92;14.25;;;;;;;16.65;49.95;98630.03;5093614;28;20119;-45
2023/02/22 11:27:25;;;;;;;18.00;10.10;;;;;;;16.49;50.32;98636.91;5089140;28;20044;-45
2023/02/22 11:30:24;;;;;;;20.08;10.07;;;;;;;16.50;51.19;98636.69;5115276;28;20024;-46
2023/02/22 11:33:28;;;;;;;26.70;13.35;;;;;;;16.60;51.11;98627.28;5115855;28;20489;-45
2023/02/22 11:36:02;;;;;;;14.52;8.20;;;;;;;16.74;50.66;98631.19;5095090;28;20031;-44
2023/02/22 11:38:53;;;;;;;11.35;7.63;;;;;;;16.73;50.57;98624.31;5115733;28;20503;-44
2023/02/22 11:41:36;;;;;;;16.60;9.18;;;;;;;16.64;51.18;98623.09;5115615;28;20035;-45
2023/02/22 11:44:25;;;;;;;20.30;12.30;;;;;;;16.37;51.66;98627.19;5115558;28;20050;-45
2023/02/22 11:46:55;;;;;;;19.80;11.20;;;;;;;16.14;51.72;98628.13;5115450;28;20100;-44
2023/02/22 11:49:37;;;;;;;17.45;10.52;;;;;;;16.10;51.70;98623.53;5115536;28;20019;-44
2023/02/22 11:52:33;;;;;;;20.95;9.73;;;;;;;16.09;51.70;98619.28;5115450;28;20027;-45
2023/02/22 11:55:32;;;;;;;34.38;19.58;;;;;;;16.13;52.19;98613.25;5097110;28;20118;-45
2023/02/22 11:58:07;;;;;;;28.90;14.70;;;;;;;16.32;51.65;98613.88;5115076;28;20538;-45
2023/02/22 12:01:10;;;;;;;;;;;;;;;16.34;51.51;98614.44;5097505;28;20059;-44
2023/02/22 12:04:17;;;;;;;19.63;8.07;;;;;;;16.21;51.52;98613.94;5032390;28;19959;-45
2023/02/22 12:07:41;;;;;;;21.40;8.55;;;;;;;16.28;51.37;98609.25;5009956;28;20049;-44
2023/02/22 12:11:02;;;;;;;14.13;8.60;;;;;;;16.37;51.55;98599.91;5032423;28;20030;-44
2023/02/22 12:14:08;;;;;;;17.52;8.27;;;;;;;16.49;51.29;98597.97;5006568;28;20072;-44
2023/02/22 12:16:49;;;;;;;18.42;7.75;;;;;;;16.64;51.49;98593.94;5032292;28;20033;-44